Latest Weather Observations for Longreach

IDQ60801

Issued at 7:32 am EST Monday 8 February 2016 (issued every 30 minutes, with the page automatically refreshed every 10 minutes)

About weather observations | Map of weather stations | Latest weather observations for QLD | Other Formats
Station Details ID: 036031 Name: LONGREACH AERO Lat: -23.44 Lon: 144.28 Height: 192.2 m
Data from the previous 72 hours. | See also: Recent months at Longreach
Date/Time
EST
Temp
°C
App
Temp
°C
Dew
Point
Rel
Hum
%
Delta-T
°C
Wind Press
QNH
hPa
Press
MSL
hPa
Rain
since 9 am
mm
Dir
 
Spd
km/h
Gust
km/h
Spd
kts
Gust
kts
08/07:00am 24.4 27.0 22.0 86 1.6 SE 11 17 6 9 1012.0 1010.6 0.0
08/06:30am 23.6 25.9 22.0 91 1.1 ESE 13 17 7 9 1011.6 1010.2 0.0
08/06:00am 23.4 25.9 21.8 91 1.1 ESE 11 15 6 8 1011.2 1009.8 0.0
08/05:30am 23.5 26.4 21.7 90 1.2 ESE 9 13 5 7 1011.0 1009.6 0.0
08/05:00am 23.4 25.9 21.8 91 1.1 SE 11 17 6 9 1010.9 1009.5 0.0
08/04:30am 23.6 26.1 21.8 90 1.2 SE 11 17 6 9 1010.7 1009.3 0.0
08/04:00am 23.7 26.7 21.9 90 1.2 SE 9 13 5 7 1010.7 1009.3 0.0
08/03:30am 23.8 26.3 21.7 88 1.4 SE 11 17 6 9 1010.5 1009.1 0.0
08/03:00am 23.8 26.2 21.5 87 1.5 SE 11 15 6 8 1010.4 1009.0 0.0
08/02:30am 23.7 26.5 21.6 88 1.4 SE 9 13 5 7 1010.4 1009.0 0.0
08/02:00am 23.8 26.7 21.7 88 1.4 SE 9 13 5 7 1010.5 1009.1 0.0
08/01:30am 24.1 26.5 21.5 85 1.7 SSE 11 17 6 9 1010.8 1009.4 0.0
08/01:00am 24.4 26.4 21.6 84 1.9 SE 13 17 7 9 1011.0 1009.6 0.0
08/12:30am 24.7 25.6 21.6 83 2.1 SE 19 24 10 13 1011.2 1009.8 0.0
08/12:00am 24.9 25.8 21.6 82 2.2 SE 19 24 10 13 1011.3 1009.9 0.0
 
Date/Time
EST
Temp
°C
App
Temp
°C
Dew
Point
Rel
Hum
%
Delta-T
°C
Wind Press
QNH
hPa
Press
MSL
hPa
Rain
since 9 am
mm
Dir
 
Spd
km/h
Gust
km/h
Spd
kts
Gust
kts
07/11:30pm 25.1 27.0 22.0 83 2.1 SE 15 20 8 11 1011.4 1010.0 0.0
07/11:00pm 25.1 27.0 22.1 83 2.0 SE 15 20 8 11 1011.4 1010.0 0.0
07/10:30pm 25.3 26.7 21.9 81 2.3 SE 17 20 9 11 1011.3 1009.9 0.0
07/10:00pm 25.6 26.9 21.7 79 2.6 SSE 17 22 9 12 1011.0 1009.6 0.0
07/09:30pm 25.9 27.1 21.4 76 3.0 SE 17 24 9 13 1010.9 1009.5 0.0
07/09:00pm 26.6 27.1 21.2 72 3.6 SSE 20 28 11 15 1010.6 1009.2 0.0
07/08:30pm 27.3 28.2 22.6 75 3.2 SSE 22 32 12 17 1010.2 1008.8 0.0
07/08:00pm 27.9 29.3 22.6 73 3.6 SSE 19 26 10 14 1009.7 1008.3 0.0
07/07:30pm 28.0 29.7 22.3 71 3.9 SSE 17 22 9 12 1009.2 1007.9 0.0
07/07:00pm 28.2 28.5 22.3 70 4.0 SSE 24 33 13 18 1008.5 1007.2 0.0
07/06:30pm 29.0 28.4 20.4 59 5.7 SSE 24 35 13 19 1008.0 1006.7 0.0
07/06:00pm 29.8 28.8 21.2 60 5.8 SSE 28 39 15 21 1007.4 1006.0 0.0
07/05:54pm 30.1 28.9 21.5 60 5.8 SSE 30 39 16 21 1007.2 1005.8 0.0
07/05:30pm 33.5 34.6 19.7 44 9.2 SSW 13 20 7 11 1006.8 1005.4 0.0
07/05:00pm 33.8 34.3 18.4 40 10.1 SW 13 20 7 11 1006.4 1005.0 0.0
07/04:30pm 33.8 35.3 18.8 41 9.9 SSW 9 17 5 9 1006.3 1004.9 0.0
07/04:00pm 34.1 35.4 19.4 42 9.8 SSW 11 19 6 10 1006.4 1005.0 0.0
07/03:30pm 32.8 33.8 18.6 43 9.3 W 11 15 6 8 1006.7 1005.3 0.0
07/03:00pm 33.2 35.4 19.7 45 9.0 S 7 15 4 8 1007.0 1005.6 0.0
07/02:30pm 33.1 35.4 19.4 44 9.1 SSW 6 15 3 8 1007.4 1006.0 0.0
07/02:00pm 32.4 34.9 19.8 47 8.4 W 6 13 3 7 1007.7 1006.4 0.0
07/01:30pm 31.5 34.5 20.8 53 7.2 WSW 6 13 3 7 1008.1 1006.8 0.0
07/01:00pm 31.2 34.3 21.0 54 6.9 SSW 6 9 3 5 1008.4 1007.1 0.0
07/12:30pm 31.1 34.4 21.5 56 6.5 SE 6 9 3 5 1008.6 1007.3 0.0
07/12:00pm 30.5 34.2 22.2 61 5.7 SW 6 9 3 5 1008.8 1007.5 0.0
07/11:30am 29.2 33.4 22.5 67 4.6 SSW 4 7 2 4 1009.0 1007.7 0.0
07/11:00am 27.7 31.6 21.8 70 4.0 SW 4 7 2 4 1009.2 1007.9 0.0
07/10:30am 27.4 31.7 22.6 75 3.3 SW 4 7 2 4 1009.3 1008.0 0.0
07/10:00am 26.4 30.2 22.4 78 2.7 SW 6 9 3 5 1009.4 1008.1 0.0
07/09:49am 25.6 29.2 22.4 82 2.2 SSW 7 11 4 6 1009.4 1008.1 0.0
07/09:30am 25.2 29.0 22.4 84 1.9 SSW 6 7 3 4 1009.4 1008.1 0.0
07/09:00am 25.4 29.6 22.4 83 2.0 SSW 4 9 2 5 1009.4 1008.1 0.0
07/08:30am 24.2 27.9 22.3 89 1.3 S 6 7 3 4 1009.4 1008.1 0.0
07/08:00am 23.5 27.0 22.2 92 0.9 SSE 7 11 4 6 1009.2 1007.9 0.0
07/07:35am 23.1 26.2 22.2 95 0.6 SSE 9 15 5 8 1008.9 1007.6 0.0
07/07:30am 23.0 26.0 22.0 94 0.7 SSE 9 13 5 7 1008.9 1007.6 0.0
07/07:26am 23.1 26.2 22.1 94 0.7 SSE 9 13 5 7 1008.9 1007.6 0.0
07/07:00am 22.6 25.7 22.2 98 0.3 SSE 9 13 5 7 1008.7 1007.4 0.0
07/06:30am 22.5 25.8 21.9 96 0.4 S 7 11 4 6 1008.4 1007.1 0.0
07/06:00am 22.4 25.0 22.0 98 0.3 S 11 15 6 8 1007.9 1006.6 0.0
07/05:40am 22.4 25.1 22.1 98 0.2 S 11 15 6 8 1007.8 1006.5 0.0
07/05:30am 22.5 25.4 21.7 95 0.5 SSE 9 15 5 8 1007.7 1006.4 0.0
07/05:12am 22.6 25.5 21.7 95 0.6 SSE 9 13 5 7 1007.5 1006.1 0.0
07/05:00am 22.5 25.1 21.9 96 0.4 SE 11 17 6 9 1007.3 1005.9 0.0
07/04:40am 22.6 25.2 22.0 96 0.4 SE 11 15 6 8 1007.1 1005.7 0.0
07/04:30am 22.9 25.0 21.7 93 0.8 SE 13 19 7 10 1007.0 1005.6 0.0
07/04:00am 23.2 26.1 21.7 91 1.0 SE 9 15 5 8 1006.8 1005.4 0.0
07/03:30am 23.2 25.3 21.7 91 1.0 SSE 13 17 7 9 1006.6 1005.2 0.0
07/03:00am 23.6 25.8 21.8 90 1.2 SE 13 19 7 10 1006.8 1005.4 0.0
07/02:30am 23.7 25.9 21.8 89 1.3 SE 13 17 7 9 1006.9 1005.5 0.0
07/02:00am 24.1 26.6 21.7 86 1.6 ESE 11 15 6 8 1007.3 1005.9 0.0
07/01:30am 24.1 25.8 21.7 86 1.6 SE 15 20 8 11 1007.5 1006.1 0.0
07/01:00am 24.2 26.0 21.8 86 1.6 SE 15 20 8 11 1007.8 1006.5 0.0
07/12:32am 24.0 26.2 21.9 88 1.4 SE 13 19 7 10 1007.9 1006.6 0.0
07/12:30am 24.1 26.3 21.9 87 1.5 SE 13 19 7 10 1008.0 1006.7 0.0
07/12:00am 24.6 26.4 21.9 85 1.8 SE 15 19 8 10 1008.2 1006.9 0.0
 
Date/Time
EST
Temp
°C
App
Temp
°C
Dew
Point
Rel
Hum
%
Delta-T
°C
Wind Press
QNH
hPa
Press
MSL
hPa
Rain
since 9 am
mm
Dir
 
Spd
km/h
Gust
km/h
Spd
kts
Gust
kts
06/11:30pm 25.3 27.3 22.2 83 2.1 ESE 15 20 8 11 1008.3 1007.0 0.0
06/11:00pm 25.5 28.1 22.6 84 2.0 SE 13 17 7 9 1008.2 1006.9 0.0
06/10:30pm 25.5 27.5 22.2 82 2.2 SE 15 19 8 10 1008.3 1007.0 0.0
06/10:00pm 25.8 27.5 22.4 81 2.3 SE 17 24 9 13 1007.8 1006.5 0.0
06/09:30pm 26.1 27.8 22.4 80 2.5 SE 17 22 9 12 1007.4 1006.0 0.0
06/09:00pm 26.7 28.3 22.1 76 3.1 SE 17 22 9 12 1007.0 1005.6 0.0
06/08:30pm 27.3 28.8 22.0 73 3.6 SE 17 22 9 12 1006.6 1005.2 0.0
06/08:00pm 27.7 29.1 21.9 70 3.9 SE 17 22 9 12 1006.2 1004.8 0.0
06/07:30pm 28.1 30.5 22.2 70 4.0 SE 13 19 7 10 1005.5 1004.1 0.0
06/07:00pm 29.0 30.2 21.5 64 5.1 SSE 17 20 9 11 1005.2 1003.8 0.0
06/06:30pm 29.9 31.1 21.5 60 5.7 SSE 17 24 9 13 1004.9 1003.5 0.0
06/06:00pm 30.1 31.4 21.6 60 5.8 SSE 17 22 9 12 1004.5 1003.1 0.0
06/05:30pm 30.3 31.5 21.5 59 6.0 SSE 17 22 9 12 1004.0 1002.7 0.0
06/05:00pm 30.5 31.4 21.5 58 6.1 SSE 19 26 10 14 1003.6 1002.3 0.0
06/04:30pm 30.9 32.7 21.8 58 6.2 SSE 15 20 8 11 1003.5 1002.2 0.0
06/04:00pm 30.8 32.5 21.7 58 6.2 S 15 22 8 12 1003.6 1002.3 0.0
06/03:30pm 30.4 32.3 22.1 61 5.7 S 15 20 8 11 1003.9 1002.6 0.0
06/03:00pm 30.7 33.3 21.9 59 6.0 S 11 20 6 11 1004.3 1002.9 0.0
06/02:30pm 30.2 33.9 22.2 62 5.5 ESE 6 15 3 8 1004.7 1003.3 0.0
06/02:00pm 30.5 34.3 22.8 63 5.3 ENE 7 13 4 7 1005.0 1003.6 0.0
06/01:30pm 29.2 33.0 22.8 68 4.4 E 7 11 4 6 1005.4 1004.0 0.0
06/01:00pm 27.7 30.9 22.3 72 3.7 ENE 9 15 5 8 1005.7 1004.3 0.0
06/12:30pm 27.9 30.4 22.5 72 3.7 ENE 13 17 7 9 1005.9 1004.5 0.0
06/12:00pm 27.5 30.2 21.4 69 4.1 ENE 9 17 5 9 1006.1 1004.7 0.0
06/11:30am 27.3 29.5 21.8 72 3.7 E 13 20 7 11 1006.3 1004.9 0.0
06/11:00am 27.2 29.3 21.7 72 3.7 E 13 20 7 11 1006.4 1005.0 0.0
06/10:30am 26.5 27.4 21.6 74 3.3 E 19 22 10 12 1006.5 1005.1 0.0
06/10:00am 26.2 27.1 21.6 76 3.1 ESE 19 24 10 13 1006.6 1005.2 0.0
06/09:30am 25.9 26.7 21.3 76 3.1 ESE 19 24 10 13 1006.5 1005.1 0.0
06/09:00am 25.8 26.5 21.5 77 2.9 E 20 26 11 14 1006.4 1005.0 0.0
06/08:30am 25.1 25.9 21.4 80 2.5 SE 19 24 10 13 1006.1 1004.7 0.0
06/08:17am 24.5 25.6 21.3 82 2.1 ESE 17 24 9 13 1006.0 1004.6 0.0
06/08:00am 24.5 25.5 21.7 84 1.9 SE 19 22 10 12 1005.9 1004.5 0.0
06/07:58am 24.3 25.2 21.5 84 1.9 SE 19 24 10 13 1005.8 1004.4 0.0
06/07:30am 23.8 25.5 21.6 87 1.5 SE 15 19 8 10 1005.8 1004.4 0.0
06/07:00am 23.8 25.3 21.2 85 1.7 SE 15 19 8 10 1005.6 1004.2 0.0
06/06:30am 23.3 25.3 21.5 90 1.2 SSE 13 17 7 9 1005.3 1003.9 0.0
06/06:00am 23.2 25.1 21.4 90 1.2 SSE 13 17 7 9 1005.0 1003.6 0.0
06/05:30am 23.1 25.0 21.4 90 1.1 SE 13 17 7 9 1004.5 1003.1 0.0
06/05:00am 23.2 24.4 21.4 90 1.2 SE 17 20 9 11 1004.3 1002.9 0.0
06/04:30am 23.6 25.2 21.5 88 1.4 SE 15 20 8 11 1004.0 1002.7 0.0
06/04:00am 23.8 26.0 21.2 85 1.7 SE 11 19 6 10 1003.8 1002.5 0.0
06/03:30am 24.1 24.7 21.1 83 2.0 ESE 19 24 10 13 1003.7 1002.4 0.0
06/03:00am 24.0 25.4 21.1 84 1.9 SE 15 19 8 10 1003.8 1002.5 0.0
06/02:30am 23.8 26.0 21.2 85 1.7 SE 11 17 6 9 1003.9 1002.6 0.0
06/02:00am 23.7 26.7 21.3 86 1.6 SE 7 11 4 6 1004.2 1002.8 0.0
06/01:30am 23.7 26.2 21.1 85 1.7 ESE 9 13 5 7 1004.4 1003.0 0.0
06/01:00am 23.8 25.6 21.1 85 1.8 SE 13 17 7 9 1004.9 1003.5 0.0
06/12:30am 24.3 25.7 21.1 82 2.1 SE 15 19 8 10 1005.2 1003.8 0.0
06/12:00am 24.9 25.9 21.0 79 2.6 ESE 17 22 9 12 1005.4 1004.0 0.0
 
Date/Time
EST
Temp
°C
App
Temp
°C
Dew
Point
Rel
Hum
%
Delta-T
°C
Wind Press
QNH
hPa
Press
MSL
hPa
Rain
since 9 am
mm
Dir
 
Spd
km/h
Gust
km/h
Spd
kts
Gust
kts
05/11:30pm 25.1 27.6 21.0 78 2.7 SE 9 15 5 8 1005.7 1004.3 0.0
05/11:00pm 25.3 26.2 20.9 76 2.9 SE 17 24 9 13 1006.0 1004.6 0.0
05/10:30pm 25.6 26.1 20.9 75 3.1 SE 19 24 10 13 1006.0 1004.6 0.0
05/10:00pm 26.5 25.5 20.5 69 4.0 SE 26 35 14 19 1006.1 1004.7 0.0
05/09:30pm 27.1 28.1 21.0 69 4.1 SE 17 22 9 12 1006.0 1004.6 0.0
05/09:00pm 27.7 27.9 20.6 65 4.7 SE 20 28 11 15 1005.8 1004.4 0.0
05/08:30pm 28.1 28.2 20.3 62 5.2 ESE 20 26 11 14 1005.3 1003.9 0.0
05/08:00pm 28.6 28.3 19.5 58 6.0 SE 20 26 11 14 1004.8 1003.4 0.0
05/07:30pm 29.1 28.6 19.2 55 6.5 SE 20 28 11 15 1004.4 1003.0 0.0
05/07:00pm 29.7 29.2 19.0 52 7.0 SE 20 28 11 15 1003.8 1002.5 0.0
05/06:30pm 30.5 30.8 18.7 49 7.7 SSE 15 24 8 13 1003.3 1002.0 0.0
05/06:00pm 31.0 31.5 17.5 44 8.7 SW 11 15 6 8 1002.9 1001.5 0.0
05/05:30pm 31.1 30.9 17.6 44 8.7 SW 15 22 8 12 1002.5 1001.1 0.0
05/05:00pm 31.7 31.2 17.8 43 9.0 WSW 17 22 9 12 1002.4 1001.0 0.0
05/04:30pm 31.2 30.4 17.0 42 9.0 SW 17 22 9 12 1002.7 1001.3 0.0
05/04:00pm 32.1 32.3 17.6 42 9.4 SW 13 24 7 13 1002.7 1001.3 0.0
05/03:30pm 31.3 31.6 16.9 42 9.2 S 11 17 6 9 1003.3 1002.0 0.0
05/03:00pm 31.4 32.4 16.8 41 9.3 SE 7 13 4 7 1003.6 1002.3 0.0
05/02:30pm 30.5 32.1 16.0 41 9.1 SSW 2 7 1 4 1004.3 1002.9 0.0
05/02:00pm 29.9 30.8 18.3 49 7.5 WSW 11 19 6 10 1004.5 1003.1 0.0
05/01:30pm 28.5 29.8 19.3 57 6.0 WSW 11 15 6 8 1004.9 1003.5 0.0
05/01:00pm 27.8 29.0 19.9 62 5.2 WSW 13 17 7 9 1005.3 1003.9 0.0
05/12:30pm 28.0 29.3 19.3 59 5.7 SW 11 15 6 8 1005.6 1004.2 0.0
05/12:00pm 28.0 29.6 19.1 58 5.8 SSE 9 15 5 8 1006.0 1004.6 0.0
05/11:30am 27.2 29.8 20.1 65 4.7 S 6 7 3 4 1006.3 1004.9 0.0
05/11:00am 26.8 28.7 19.8 65 4.6 SSW 9 13 5 7 1006.3 1004.9 0.0
05/10:30am 26.5 29.2 20.3 68 4.1 S 6 7 3 4 1006.3 1004.9 0.0
05/10:00am 26.3 28.0 19.4 66 4.5 S 9 15 5 8 1006.1 1004.7 0.0
05/09:30am 26.1 26.6 19.2 65 4.5 S 15 19 8 10 1005.9 1004.5 0.0
05/09:00am 26.0 26.3 19.6 68 4.2 SE 17 22 9 12 1005.7 1004.3 -
05/08:30am 25.8 25.6 19.7 69 4.0 SE 20 28 11 15 1005.6 1004.2 -
05/08:00am 25.7 25.4 19.6 69 4.0 SE 20 28 11 15 1005.5 1004.1 -

Other Formats:

Comma delimited format used in spreadsheet applications
http://www.bom.gov.au/fwo/IDQ60801/IDQ60801.94346.axf

JavaScript Object Notation format (JSON) in row-major order
http://www.bom.gov.au/fwo/IDQ60801/IDQ60801.94346.json